sensor_id;sensor_type;location;lat;lon;timestamp;P1;durP1;ratioP1;P2;durP2;ratioP2
24685;SDS011;12804;51.176;4.452;2023-03-01T00:01:31;9.80;;;6.78;;
24685;SDS011;12804;51.176;4.452;2023-03-01T00:03:58;7.95;;;6.55;;
24685;SDS011;12804;51.176;4.452;2023-03-01T00:06:24;7.93;;;6.32;;
24685;SDS011;12804;51.176;4.452;2023-03-01T00:08:51;9.05;;;6.68;;
24685;SDS011;12804;51.176;4.452;2023-03-01T00:11:18;7.57;;;6.13;;
24685;SDS011;12804;51.176;4.452;2023-03-01T00:13:48;8.43;;;6.75;;
24685;SDS011;12804;51.176;4.452;2023-03-01T00:16:19;7.75;;;6.30;;
24685;SDS011;12804;51.176;4.452;2023-03-01T00:18:50;8.10;;;6.68;;
24685;SDS011;12804;51.176;4.452;2023-03-01T00:21:16;8.00;;;5.95;;
24685;SDS011;12804;51.176;4.452;2023-03-01T00:23:42;8.25;;;6.20;;
24685;SDS011;12804;51.176;4.452;2023-03-01T00:26:09;7.80;;;6.35;;
24685;SDS011;12804;51.176;4.452;2023-03-01T00:28:39;9.57;;;6.78;;
24685;SDS011;12804;51.176;4.452;2023-03-01T00:31:10;7.88;;;6.35;;
24685;SDS011;12804;51.176;4.452;2023-03-01T00:33:39;9.75;;;6.63;;
24685;SDS011;12804;51.176;4.452;2023-03-01T00:36:05;8.13;;;6.10;;
24685;SDS011;12804;51.176;4.452;2023-03-01T00:38:38;8.55;;;6.90;;
24685;SDS011;12804;51.176;4.452;2023-03-01T00:41:10;11.93;;;6.53;;
24685;SDS011;12804;51.176;4.452;2023-03-01T00:43:37;7.40;;;6.50;;
24685;SDS011;12804;51.176;4.452;2023-03-01T00:46:10;9.85;;;6.40;;
24685;SDS011;12804;51.176;4.452;2023-03-01T00:48:37;9.52;;;6.60;;
24685;SDS011;12804;51.176;4.452;2023-03-01T00:51:14;11.85;;;6.85;;
24685;SDS011;12804;51.176;4.452;2023-03-01T00:53:41;9.43;;;6.32;;
24685;SDS011;12804;51.176;4.452;2023-03-01T00:56:08;8.52;;;6.78;;
24685;SDS011;12804;51.176;4.452;2023-03-01T00:58:36;8.57;;;6.65;;
24685;SDS011;12804;51.176;4.452;2023-03-01T01:01:09;7.70;;;6.40;;
24685;SDS011;12804;51.176;4.452;2023-03-01T01:03:49;8.30;;;6.40;;
24685;SDS011;12804;51.176;4.452;2023-03-01T01:06:22;9.95;;;6.55;;
24685;SDS011;12804;51.176;4.452;2023-03-01T01:08:50;9.77;;;6.28;;
24685;SDS011;12804;51.176;4.452;2023-03-01T01:11:17;10.27;;;6.55;;
24685;SDS011;12804;51.176;4.452;2023-03-01T01:13:44;8.98;;;6.68;;
24685;SDS011;12804;51.176;4.452;2023-03-01T01:16:11;9.05;;;7.07;;
24685;SDS011;12804;51.176;4.452;2023-03-01T01:18:38;8.57;;;6.47;;
24685;SDS011;12804;51.176;4.452;2023-03-01T01:21:08;11.02;;;7.30;;
24685;SDS011;12804;51.176;4.452;2023-03-01T01:23:36;7.40;;;5.07;;
24685;SDS011;12804;51.176;4.452;2023-03-01T01:26:04;9.18;;;6.45;;
24685;SDS011;12804;51.176;4.452;2023-03-01T01:28:35;6.93;;;5.13;;
24685;SDS011;12804;51.176;4.452;2023-03-01T01:31:01;7.80;;;6.30;;
24685;SDS011;12804;51.176;4.452;2023-03-01T01:33:27;7.35;;;6.32;;
24685;SDS011;12804;51.176;4.452;2023-03-01T01:35:53;9.68;;;6.97;;
24685;SDS011;12804;51.176;4.452;2023-03-01T01:38:19;7.97;;;6.30;;
24685;SDS011;12804;51.176;4.452;2023-03-01T01:40:46;12.20;;;6.80;;
24685;SDS011;12804;51.176;4.452;2023-03-01T01:45:57;7.95;;;6.10;;
24685;SDS011;12804;51.176;4.452;2023-03-01T01:51:17;10.07;;;7.07;;
24685;SDS011;12804;51.176;4.452;2023-03-01T01:53:47;9.55;;;6.95;;
24685;SDS011;12804;51.176;4.452;2023-03-01T01:56:16;8.32;;;6.78;;
24685;SDS011;12804;51.176;4.452;2023-03-01T01:58:44;11.43;;;7.18;;
24685;SDS011;12804;51.176;4.452;2023-03-01T02:01:12;8.30;;;7.03;;
24685;SDS011;12804;51.176;4.452;2023-03-01T02:03:39;9.80;;;7.00;;
24685;SDS011;12804;51.176;4.452;2023-03-01T02:06:27;8.13;;;7.00;;
24685;SDS011;12804;51.176;4.452;2023-03-01T02:09:05;8.25;;;6.70;;
24685;SDS011;12804;51.176;4.452;2023-03-01T02:11:36;9.43;;;6.45;;
24685;SDS011;12804;51.176;4.452;2023-03-01T02:14:03;10.52;;;6.72;;
24685;SDS011;12804;51.176;4.452;2023-03-01T02:16:29;7.40;;;6.60;;
24685;SDS011;12804;51.176;4.452;2023-03-01T02:18:56;9.60;;;7.03;;
24685;SDS011;12804;51.176;4.452;2023-03-01T02:21:42;8.65;;;6.80;;
24685;SDS011;12804;51.176;4.452;2023-03-01T02:26:59;9.50;;;6.72;;
24685;SDS011;12804;51.176;4.452;2023-03-01T02:29:26;8.63;;;6.40;;
24685;SDS011;12804;51.176;4.452;2023-03-01T02:31:53;9.05;;;6.55;;
24685;SDS011;12804;51.176;4.452;2023-03-01T02:34:25;11.38;;;7.63;;
24685;SDS011;12804;51.176;4.452;2023-03-01T02:37:00;12.07;;;7.03;;
24685;SDS011;12804;51.176;4.452;2023-03-01T02:39:47;9.27;;;6.55;;
24685;SDS011;12804;51.176;4.452;2023-03-01T02:42:17;10.15;;;6.45;;
24685;SDS011;12804;51.176;4.452;2023-03-01T02:44:49;8.80;;;7.00;;
24685;SDS011;12804;51.176;4.452;2023-03-01T02:47:15;8.38;;;6.70;;
24685;SDS011;12804;51.176;4.452;2023-03-01T02:49:41;11.85;;;6.55;;
24685;SDS011;12804;51.176;4.452;2023-03-01T02:54:44;9.65;;;6.78;;
24685;SDS011;12804;51.176;4.452;2023-03-01T02:57:18;9.48;;;6.57;;
24685;SDS011;12804;51.176;4.452;2023-03-01T02:59:45;10.52;;;6.63;;
24685;SDS011;12804;51.176;4.452;2023-03-01T03:02:21;8.40;;;6.60;;
24685;SDS011;12804;51.176;4.452;2023-03-01T03:05:08;7.50;;;5.30;;
24685;SDS011;12804;51.176;4.452;2023-03-01T03:07:37;8.07;;;6.43;;
24685;SDS011;12804;51.176;4.452;2023-03-01T03:10:07;7.75;;;5.85;;
24685;SDS011;12804;51.176;4.452;2023-03-01T03:12:37;8.57;;;6.70;;
24685;SDS011;12804;51.176;4.452;2023-03-01T03:15:04;8.38;;;6.38;;
24685;SDS011;12804;51.176;4.452;2023-03-01T03:17:37;8.10;;;6.28;;
24685;SDS011;12804;51.176;4.452;2023-03-01T03:20:06;8.37;;;6.47;;
24685;SDS011;12804;51.176;4.452;2023-03-01T03:22:40;8.90;;;6.50;;
24685;SDS011;12804;51.176;4.452;2023-03-01T03:25:08;10.30;;;6.60;;
24685;SDS011;12804;51.176;4.452;2023-03-01T03:27:39;8.10;;;6.72;;
24685;SDS011;12804;51.176;4.452;2023-03-01T03:30:10;11.15;;;6.80;;
24685;SDS011;12804;51.176;4.452;2023-03-01T03:32:39;10.15;;;6.70;;
24685;SDS011;12804;51.176;4.452;2023-03-01T03:35:06;7.47;;;6.20;;
24685;SDS011;12804;51.176;4.452;2023-03-01T03:37:38;9.07;;;7.03;;
24685;SDS011;12804;51.176;4.452;2023-03-01T03:40:24;8.10;;;6.25;;
24685;SDS011;12804;51.176;4.452;2023-03-01T03:42:52;8.40;;;7.03;;
24685;SDS011;12804;51.176;4.452;2023-03-01T03:45:18;9.98;;;6.20;;
24685;SDS011;12804;51.176;4.452;2023-03-01T03:47:44;10.60;;;6.88;;
24685;SDS011;12804;51.176;4.452;2023-03-01T03:50:10;9.02;;;6.70;;
24685;SDS011;12804;51.176;4.452;2023-03-01T03:52:38;9.88;;;6.65;;
24685;SDS011;12804;51.176;4.452;2023-03-01T03:55:05;9.35;;;6.78;;
24685;SDS011;12804;51.176;4.452;2023-03-01T03:57:35;8.52;;;6.88;;
24685;SDS011;12804;51.176;4.452;2023-03-01T04:02:44;9.23;;;6.63;;
24685;SDS011;12804;51.176;4.452;2023-03-01T04:05:11;8.65;;;6.60;;
24685;SDS011;12804;51.176;4.452;2023-03-01T04:07:39;10.63;;;6.53;;
24685;SDS011;12804;51.176;4.452;2023-03-01T04:10:07;8.82;;;6.97;;
24685;SDS011;12804;51.176;4.452;2023-03-01T04:12:38;9.77;;;6.72;;
24685;SDS011;12804;51.176;4.452;2023-03-01T04:15:04;9.10;;;6.80;;
24685;SDS011;12804;51.176;4.452;2023-03-01T04:17:45;7.70;;;6.32;;
24685;SDS011;12804;51.176;4.452;2023-03-01T04:20:13;11.88;;;6.95;;
24685;SDS011;12804;51.176;4.452;2023-03-01T04:22:50;7.97;;;6.25;;
24685;SDS011;12804;51.176;4.452;2023-03-01T04:25:23;11.95;;;6.70;;
24685;SDS011;12804;51.176;4.452;2023-03-01T04:27:52;9.50;;;6.85;;
24685;SDS011;12804;51.176;4.452;2023-03-01T04:30:17;9.15;;;6.75;;
24685;SDS011;12804;51.176;4.452;2023-03-01T04:32:43;9.43;;;6.75;;
24685;SDS011;12804;51.176;4.452;2023-03-01T04:35:09;8.38;;;6.55;;
24685;SDS011;12804;51.176;4.452;2023-03-01T04:37:35;10.52;;;6.72;;
24685;SDS011;12804;51.176;4.452;2023-03-01T04:40:01;9.00;;;7.13;;
24685;SDS011;12804;51.176;4.452;2023-03-01T04:42:38;9.20;;;6.25;;
24685;SDS011;12804;51.176;4.452;2023-03-01T04:45:04;9.02;;;6.70;;
24685;SDS011;12804;51.176;4.452;2023-03-01T04:47:41;8.75;;;6.93;;
24685;SDS011;12804;51.176;4.452;2023-03-01T04:50:10;9.73;;;7.63;;
24685;SDS011;12804;51.176;4.452;2023-03-01T04:52:36;10.80;;;6.90;;
24685;SDS011;12804;51.176;4.452;2023-03-01T04:55:03;11.18;;;7.15;;
24685;SDS011;12804;51.176;4.452;2023-03-01T04:57:29;9.45;;;6.95;;
24685;SDS011;12804;51.176;4.452;2023-03-01T04:59:56;11.43;;;7.15;;
24685;SDS011;12804;51.176;4.452;2023-03-01T05:02:22;10.30;;;6.47;;
24685;SDS011;12804;51.176;4.452;2023-03-01T05:04:48;8.23;;;6.47;;
24685;SDS011;12804;51.176;4.452;2023-03-01T05:07:13;9.05;;;6.90;;
24685;SDS011;12804;51.176;4.452;2023-03-01T05:09:47;9.93;;;7.10;;
24685;SDS011;12804;51.176;4.452;2023-03-01T05:12:13;8.82;;;6.82;;
24685;SDS011;12804;51.176;4.452;2023-03-01T05:14:40;10.07;;;6.60;;
24685;SDS011;12804;51.176;4.452;2023-03-01T05:17:06;9.50;;;6.63;;
24685;SDS011;12804;51.176;4.452;2023-03-01T05:19:33;9.48;;;7.03;;
24685;SDS011;12804;51.176;4.452;2023-03-01T05:21:59;11.13;;;7.15;;
24685;SDS011;12804;51.176;4.452;2023-03-01T05:24:34;8.88;;;6.65;;
24685;SDS011;12804;51.176;4.452;2023-03-01T05:27:01;10.75;;;8.02;;
24685;SDS011;12804;51.176;4.452;2023-03-01T05:29:28;9.77;;;7.25;;
24685;SDS011;12804;51.176;4.452;2023-03-01T05:31:57;9.48;;;7.25;;
24685;SDS011;12804;51.176;4.452;2023-03-01T05:34:28;9.82;;;6.88;;
24685;SDS011;12804;51.176;4.452;2023-03-01T05:36:58;11.05;;;7.25;;
24685;SDS011;12804;51.176;4.452;2023-03-01T05:39:25;12.65;;;7.85;;
24685;SDS011;12804;51.176;4.452;2023-03-01T05:41:52;11.52;;;7.05;;
24685;SDS011;12804;51.176;4.452;2023-03-01T05:44:19;11.00;;;7.85;;
24685;SDS011;12804;51.176;4.452;2023-03-01T05:46:46;9.85;;;6.88;;
24685;SDS011;12804;51.176;4.452;2023-03-01T05:49:13;11.98;;;7.35;;
24685;SDS011;12804;51.176;4.452;2023-03-01T05:51:40;9.80;;;7.13;;
24685;SDS011;12804;51.176;4.452;2023-03-01T05:54:07;11.18;;;7.15;;
24685;SDS011;12804;51.176;4.452;2023-03-01T05:56:33;9.13;;;7.13;;
24685;SDS011;12804;51.176;4.452;2023-03-01T05:59:00;9.80;;;6.40;;
24685;SDS011;12804;51.176;4.452;2023-03-01T06:01:27;15.10;;;7.10;;
24685;SDS011;12804;51.176;4.452;2023-03-01T06:03:52;12.05;;;6.95;;
24685;SDS011;12804;51.176;4.452;2023-03-01T06:06:18;9.95;;;6.88;;
24685;SDS011;12804;51.176;4.452;2023-03-01T06:08:44;14.18;;;8.02;;
24685;SDS011;12804;51.176;4.452;2023-03-01T06:11:10;12.38;;;7.53;;
24685;SDS011;12804;51.176;4.452;2023-03-01T06:13:36;11.57;;;7.38;;
24685;SDS011;12804;51.176;4.452;2023-03-01T06:16:04;10.65;;;7.25;;
24685;SDS011;12804;51.176;4.452;2023-03-01T06:18:31;14.07;;;7.25;;
24685;SDS011;12804;51.176;4.452;2023-03-01T06:20:57;9.82;;;7.38;;
24685;SDS011;12804;51.176;4.452;2023-03-01T06:23:23;11.50;;;7.03;;
24685;SDS011;12804;51.176;4.452;2023-03-01T06:25:49;10.43;;;6.35;;
24685;SDS011;12804;51.176;4.452;2023-03-01T06:28:16;11.07;;;7.25;;
24685;SDS011;12804;51.176;4.452;2023-03-01T06:30:42;12.45;;;7.70;;
24685;SDS011;12804;51.176;4.452;2023-03-01T06:33:08;13.45;;;7.80;;
24685;SDS011;12804;51.176;4.452;2023-03-01T06:35:34;11.23;;;7.07;;
24685;SDS011;12804;51.176;4.452;2023-03-01T06:38:00;11.93;;;7.13;;
24685;SDS011;12804;51.176;4.452;2023-03-01T06:40:28;11.13;;;7.97;;
24685;SDS011;12804;51.176;4.452;2023-03-01T06:42:54;12.27;;;7.93;;
24685;SDS011;12804;51.176;4.452;2023-03-01T06:45:20;10.95;;;7.43;;
24685;SDS011;12804;51.176;4.452;2023-03-01T06:47:46;12.10;;;7.10;;
24685;SDS011;12804;51.176;4.452;2023-03-01T06:50:13;13.23;;;7.75;;
24685;SDS011;12804;51.176;4.452;2023-03-01T06:52:39;13.13;;;7.80;;
24685;SDS011;12804;51.176;4.452;2023-03-01T06:55:05;13.02;;;7.53;;
24685;SDS011;12804;51.176;4.452;2023-03-01T06:57:32;11.40;;;7.43;;
24685;SDS011;12804;51.176;4.452;2023-03-01T06:59:58;10.63;;;7.07;;
24685;SDS011;12804;51.176;4.452;2023-03-01T07:02:24;10.98;;;7.30;;
24685;SDS011;12804;51.176;4.452;2023-03-01T07:04:50;11.45;;;6.95;;
24685;SDS011;12804;51.176;4.452;2023-03-01T07:07:16;10.50;;;7.38;;
24685;SDS011;12804;51.176;4.452;2023-03-01T07:09:43;13.57;;;8.25;;
24685;SDS011;12804;51.176;4.452;2023-03-01T07:12:10;9.93;;;7.38;;
24685;SDS011;12804;51.176;4.452;2023-03-01T07:14:36;14.40;;;8.18;;
24685;SDS011;12804;51.176;4.452;2023-03-01T07:17:02;13.48;;;8.68;;
24685;SDS011;12804;51.176;4.452;2023-03-01T07:19:28;9.82;;;7.57;;
24685;SDS011;12804;51.176;4.452;2023-03-01T07:21:53;14.57;;;8.00;;
24685;SDS011;12804;51.176;4.452;2023-03-01T07:24:21;14.55;;;7.75;;
24685;SDS011;12804;51.176;4.452;2023-03-01T07:26:50;15.43;;;7.82;;
24685;SDS011;12804;51.176;4.452;2023-03-01T07:29:17;12.85;;;7.80;;
24685;SDS011;12804;51.176;4.452;2023-03-01T07:31:43;11.35;;;7.38;;
24685;SDS011;12804;51.176;4.452;2023-03-01T07:34:09;11.30;;;7.55;;
24685;SDS011;12804;51.176;4.452;2023-03-01T07:36:36;15.35;;;7.38;;
24685;SDS011;12804;51.176;4.452;2023-03-01T07:39:02;10.32;;;7.43;;
24685;SDS011;12804;51.176;4.452;2023-03-01T07:41:29;12.57;;;7.63;;
24685;SDS011;12804;51.176;4.452;2023-03-01T07:43:55;14.60;;;7.55;;
24685;SDS011;12804;51.176;4.452;2023-03-01T07:46:20;9.52;;;6.82;;
24685;SDS011;12804;51.176;4.452;2023-03-01T07:48:46;9.27;;;7.20;;
24685;SDS011;12804;51.176;4.452;2023-03-01T07:51:12;11.85;;;7.63;;
24685;SDS011;12804;51.176;4.452;2023-03-01T07:53:39;11.35;;;7.00;;
24685;SDS011;12804;51.176;4.452;2023-03-01T07:56:14;14.00;;;7.25;;
24685;SDS011;12804;51.176;4.452;2023-03-01T07:58:45;12.70;;;7.20;;
24685;SDS011;12804;51.176;4.452;2023-03-01T08:01:12;11.25;;;7.75;;
24685;SDS011;12804;51.176;4.452;2023-03-01T08:03:40;12.07;;;7.18;;
24685;SDS011;12804;51.176;4.452;2023-03-01T08:06:07;12.10;;;6.97;;
24685;SDS011;12804;51.176;4.452;2023-03-01T08:08:34;13.23;;;7.50;;
24685;SDS011;12804;51.176;4.452;2023-03-01T08:11:01;12.73;;;7.32;;
24685;SDS011;12804;51.176;4.452;2023-03-01T08:13:29;12.32;;;7.05;;
24685;SDS011;12804;51.176;4.452;2023-03-01T08:16:00;9.98;;;6.82;;
24685;SDS011;12804;51.176;4.452;2023-03-01T08:18:30;8.40;;;6.30;;
24685;SDS011;12804;51.176;4.452;2023-03-01T08:21:01;13.70;;;6.95;;
24685;SDS011;12804;51.176;4.452;2023-03-01T08:23:36;13.20;;;7.43;;
24685;SDS011;12804;51.176;4.452;2023-03-01T08:26:13;9.85;;;6.70;;
24685;SDS011;12804;51.176;4.452;2023-03-01T08:28:40;12.75;;;7.10;;
24685;SDS011;12804;51.176;4.452;2023-03-01T08:31:14;10.20;;;7.43;;
24685;SDS011;12804;51.176;4.452;2023-03-01T08:33:41;12.15;;;7.18;;
24685;SDS011;12804;51.176;4.452;2023-03-01T08:36:07;9.52;;;6.60;;
24685;SDS011;12804;51.176;4.452;2023-03-01T08:38:34;11.73;;;7.18;;
24685;SDS011;12804;51.176;4.452;2023-03-01T08:41:00;10.07;;;6.75;;
24685;SDS011;12804;51.176;4.452;2023-03-01T08:43:28;11.05;;;7.03;;
24685;SDS011;12804;51.176;4.452;2023-03-01T08:45:54;11.75;;;7.22;;
24685;SDS011;12804;51.176;4.452;2023-03-01T08:48:19;12.50;;;7.10;;
24685;SDS011;12804;51.176;4.452;2023-03-01T08:50:45;13.23;;;7.47;;
24685;SDS011;12804;51.176;4.452;2023-03-01T08:53:11;10.30;;;7.18;;
24685;SDS011;12804;51.176;4.452;2023-03-01T08:55:37;12.07;;;7.47;;
24685;SDS011;12804;51.176;4.452;2023-03-01T08:58:03;13.10;;;7.70;;
24685;SDS011;12804;51.176;4.452;2023-03-01T09:00:28;11.13;;;8.00;;
24685;SDS011;12804;51.176;4.452;2023-03-01T09:02:54;8.70;;;6.40;;
24685;SDS011;12804;51.176;4.452;2023-03-01T09:05:20;13.52;;;7.07;;
24685;SDS011;12804;51.176;4.452;2023-03-01T09:07:46;9.20;;;6.95;;
24685;SDS011;12804;51.176;4.452;2023-03-01T09:10:12;11.18;;;7.45;;
24685;SDS011;12804;51.176;4.452;2023-03-01T09:12:38;11.55;;;7.20;;
24685;SDS011;12804;51.176;4.452;2023-03-01T09:15:03;9.15;;;6.57;;
24685;SDS011;12804;51.176;4.452;2023-03-01T09:17:30;10.02;;;7.63;;
24685;SDS011;12804;51.176;4.452;2023-03-01T09:19:55;9.07;;;7.03;;
24685;SDS011;12804;51.176;4.452;2023-03-01T09:22:21;9.57;;;6.60;;
24685;SDS011;12804;51.176;4.452;2023-03-01T09:24:47;10.25;;;6.20;;
24685;SDS011;12804;51.176;4.452;2023-03-01T09:27:13;9.95;;;6.78;;
24685;SDS011;12804;51.176;4.452;2023-03-01T09:29:39;7.13;;;6.22;;
24685;SDS011;12804;51.176;4.452;2023-03-01T09:32:05;8.57;;;6.85;;
24685;SDS011;12804;51.176;4.452;2023-03-01T09:34:33;8.55;;;6.22;;
24685;SDS011;12804;51.176;4.452;2023-03-01T09:37:19;8.02;;;6.53;;
24685;SDS011;12804;51.176;4.452;2023-03-01T09:39:44;12.52;;;6.63;;
24685;SDS011;12804;51.176;4.452;2023-03-01T09:42:11;10.18;;;6.65;;
24685;SDS011;12804;51.176;4.452;2023-03-01T09:44:40;9.02;;;6.97;;
24685;SDS011;12804;51.176;4.452;2023-03-01T09:47:16;9.48;;;6.53;;
24685;SDS011;12804;51.176;4.452;2023-03-01T09:50:12;10.57;;;6.45;;
24685;SDS011;12804;51.176;4.452;2023-03-01T09:52:43;7.72;;;6.05;;
24685;SDS011;12804;51.176;4.452;2023-03-01T09:55:15;8.43;;;6.80;;
24685;SDS011;12804;51.176;4.452;2023-03-01T09:58:05;12.30;;;6.97;;
24685;SDS011;12804;51.176;4.452;2023-03-01T10:00:50;8.45;;;6.63;;
24685;SDS011;12804;51.176;4.452;2023-03-01T10:03:17;10.27;;;6.55;;
24685;SDS011;12804;51.176;4.452;2023-03-01T10:06:13;8.95;;;7.07;;
24685;SDS011;12804;51.176;4.452;2023-03-01T10:08:50;11.05;;;6.57;;
24685;SDS011;12804;51.176;4.452;2023-03-01T10:13:59;9.23;;;6.57;;
24685;SDS011;12804;51.176;4.452;2023-03-01T10:16:52;9.18;;;6.93;;
24685;SDS011;12804;51.176;4.452;2023-03-01T10:19:44;8.18;;;6.43;;
24685;SDS011;12804;51.176;4.452;2023-03-01T10:22:27;12.55;;;7.05;;
24685;SDS011;12804;51.176;4.452;2023-03-01T10:24:57;10.60;;;6.38;;
24685;SDS011;12804;51.176;4.452;2023-03-01T10:27:37;9.90;;;6.88;;
24685;SDS011;12804;51.176;4.452;2023-03-01T10:30:22;8.63;;;6.40;;
24685;SDS011;12804;51.176;4.452;2023-03-01T10:32:59;8.85;;;6.40;;
24685;SDS011;12804;51.176;4.452;2023-03-01T10:35:29;7.55;;;5.95;;
24685;SDS011;12804;51.176;4.452;2023-03-01T10:40:29;6.55;;;5.18;;
24685;SDS011;12804;51.176;4.452;2023-03-01T10:42:57;8.43;;;5.78;;
24685;SDS011;12804;51.176;4.452;2023-03-01T10:50:35;6.18;;;5.40;;
24685;SDS011;12804;51.176;4.452;2023-03-01T10:53:03;10.05;;;5.55;;
24685;SDS011;12804;51.176;4.452;2023-03-01T10:55:31;10.93;;;6.05;;
24685;SDS011;12804;51.176;4.452;2023-03-01T11:00:49;8.38;;;5.82;;
24685;SDS011;12804;51.176;4.452;2023-03-01T11:03:20;7.32;;;6.03;;
24685;SDS011;12804;51.176;4.452;2023-03-01T11:08:29;7.70;;;5.97;;
24685;SDS011;12804;51.176;4.452;2023-03-01T11:13:40;8.32;;;5.60;;
24685;SDS011;12804;51.176;4.452;2023-03-01T11:16:37;7.63;;;5.82;;
24685;SDS011;12804;51.176;4.452;2023-03-01T11:19:13;9.35;;;6.55;;
24685;SDS011;12804;51.176;4.452;2023-03-01T11:24:47;7.43;;;6.00;;
24685;SDS011;12804;51.176;4.452;2023-03-01T11:27:26;8.40;;;5.78;;
24685;SDS011;12804;51.176;4.452;2023-03-01T11:29:59;6.53;;;5.60;;
24685;SDS011;12804;51.176;4.452;2023-03-01T11:36:24;6.18;;;5.50;;
24685;SDS011;12804;51.176;4.452;2023-03-01T11:38:26;6.65;;;5.72;;
24685;SDS011;12804;51.176;4.452;2023-03-01T11:43:47;5.82;;;5.18;;
24685;SDS011;12804;51.176;4.452;2023-03-01T11:48:57;5.75;;;5.07;;
24685;SDS011;12804;51.176;4.452;2023-03-01T11:51:50;5.40;;;4.90;;
24685;SDS011;12804;51.176;4.452;2023-03-01T11:57:11;7.20;;;5.80;;
24685;SDS011;12804;51.176;4.452;2023-03-01T12:05:50;8.00;;;5.70;;
24685;SDS011;12804;51.176;4.452;2023-03-01T12:11:20;7.30;;;5.63;;
24685;SDS011;12804;51.176;4.452;2023-03-01T12:16:34;7.50;;;5.28;;
24685;SDS011;12804;51.176;4.452;2023-03-01T12:24:52;6.07;;;5.47;;
24685;SDS011;12804;51.176;4.452;2023-03-01T12:30:26;7.70;;;5.65;;
24685;SDS011;12804;51.176;4.452;2023-03-01T12:39:06;6.43;;;5.72;;
24685;SDS011;12804;51.176;4.452;2023-03-01T12:41:57;7.40;;;5.05;;
24685;SDS011;12804;51.176;4.452;2023-03-01T12:52:52;7.15;;;5.72;;
24685;SDS011;12804;51.176;4.452;2023-03-01T12:55:28;8.23;;;5.68;;
24685;SDS011;12804;51.176;4.452;2023-03-01T13:00:35;7.25;;;5.57;;
24685;SDS011;12804;51.176;4.452;2023-03-01T13:03:51;6.47;;;5.43;;
24685;SDS011;12804;51.176;4.452;2023-03-01T13:06:19;8.80;;;6.10;;
24685;SDS011;12804;51.176;4.452;2023-03-01T13:11:34;6.43;;;5.30;;
24685;SDS011;12804;51.176;4.452;2023-03-01T13:16:51;7.18;;;5.30;;
24685;SDS011;12804;51.176;4.452;2023-03-01T13:19:22;12.68;;;6.18;;
24685;SDS011;12804;51.176;4.452;2023-03-01T13:21:54;6.20;;;4.82;;
24685;SDS011;12804;51.176;4.452;2023-03-01T13:29:43;7.13;;;4.65;;
24685;SDS011;12804;51.176;4.452;2023-03-01T13:34:47;6.22;;;4.90;;
24685;SDS011;12804;51.176;4.452;2023-03-01T13:37:27;7.45;;;5.13;;
24685;SDS011;12804;51.176;4.452;2023-03-01T13:39:56;6.68;;;5.35;;
24685;SDS011;12804;51.176;4.452;2023-03-01T13:44:55;7.03;;;5.20;;
24685;SDS011;12804;51.176;4.452;2023-03-01T13:47:22;9.10;;;4.80;;
24685;SDS011;12804;51.176;4.452;2023-03-01T13:52:29;10.70;;;5.68;;
24685;SDS011;12804;51.176;4.452;2023-03-01T13:55:14;6.57;;;5.22;;
24685;SDS011;12804;51.176;4.452;2023-03-01T13:57:45;7.15;;;5.28;;
24685;SDS011;12804;51.176;4.452;2023-03-01T14:03:06;6.57;;;4.88;;
24685;SDS011;12804;51.176;4.452;2023-03-01T14:05:34;6.38;;;5.30;;
24685;SDS011;12804;51.176;4.452;2023-03-01T14:08:02;6.05;;;4.95;;
24685;SDS011;12804;51.176;4.452;2023-03-01T14:10:36;8.68;;;5.45;;
24685;SDS011;12804;51.176;4.452;2023-03-01T14:13:27;8.23;;;5.38;;
24685;SDS011;12804;51.176;4.452;2023-03-01T14:19:00;5.97;;;5.38;;
24685;SDS011;12804;51.176;4.452;2023-03-01T14:21:44;5.85;;;4.95;;
24685;SDS011;12804;51.176;4.452;2023-03-01T14:24:22;10.38;;;5.50;;
24685;SDS011;12804;51.176;4.452;2023-03-01T14:26:49;6.85;;;5.18;;
24685;SDS011;12804;51.176;4.452;2023-03-01T14:29:33;5.50;;;4.90;;
24685;SDS011;12804;51.176;4.452;2023-03-01T14:32:34;6.60;;;4.63;;
24685;SDS011;12804;51.176;4.452;2023-03-01T14:34:55;7.05;;;5.20;;
24685;SDS011;12804;51.176;4.452;2023-03-01T14:37:24;5.68;;;5.07;;
24685;SDS011;12804;51.176;4.452;2023-03-01T14:40:00;6.30;;;5.13;;
24685;SDS011;12804;51.176;4.452;2023-03-01T14:42:28;6.93;;;5.40;;
24685;SDS011;12804;51.176;4.452;2023-03-01T14:44:59;6.90;;;4.60;;
24685;SDS011;12804;51.176;4.452;2023-03-01T14:47:30;5.65;;;5.13;;
24685;SDS011;12804;51.176;4.452;2023-03-01T14:50:02;5.33;;;4.83;;
24685;SDS011;12804;51.176;4.452;2023-03-01T14:52:50;5.07;;;4.60;;
24685;SDS011;12804;51.176;4.452;2023-03-01T14:55:24;5.53;;;4.82;;
24685;SDS011;12804;51.176;4.452;2023-03-01T14:57:54;6.30;;;5.70;;
24685;SDS011;12804;51.176;4.452;2023-03-01T15:00:26;5.72;;;5.22;;
24685;SDS011;12804;51.176;4.452;2023-03-01T15:02:57;6.40;;;5.72;;
24685;SDS011;12804;51.176;4.452;2023-03-01T15:05:29;6.50;;;5.90;;
24685;SDS011;12804;51.176;4.452;2023-03-01T15:07:56;6.47;;;5.60;;
24685;SDS011;12804;51.176;4.452;2023-03-01T15:10:28;8.63;;;6.20;;
24685;SDS011;12804;51.176;4.452;2023-03-01T15:13:41;7.72;;;5.57;;
24685;SDS011;12804;51.176;4.452;2023-03-01T15:15:49;8.52;;;6.07;;
24685;SDS011;12804;51.176;4.452;2023-03-01T15:18:36;8.02;;;5.65;;
24685;SDS011;12804;51.176;4.452;2023-03-01T15:21:10;7.38;;;5.80;;
24685;SDS011;12804;51.176;4.452;2023-03-01T15:26:54;10.35;;;6.40;;
24685;SDS011;12804;51.176;4.452;2023-03-01T15:29:27;7.15;;;6.15;;
24685;SDS011;12804;51.176;4.452;2023-03-01T15:31:59;8.45;;;6.03;;
24685;SDS011;12804;51.176;4.452;2023-03-01T15:34:49;9.95;;;5.47;;
24685;SDS011;12804;51.176;4.452;2023-03-01T15:40:21;6.65;;;5.40;;
24685;SDS011;12804;51.176;4.452;2023-03-01T15:42:58;7.35;;;5.90;;
24685;SDS011;12804;51.176;4.452;2023-03-01T15:45:25;7.10;;;5.68;;
24685;SDS011;12804;51.176;4.452;2023-03-01T15:52:58;9.07;;;5.97;;
24685;SDS011;12804;51.176;4.452;2023-03-01T15:55:26;7.15;;;5.50;;
24685;SDS011;12804;51.176;4.452;2023-03-01T15:58:14;17.17;;;6.15;;
24685;SDS011;12804;51.176;4.452;2023-03-01T16:00:43;8.25;;;5.90;;
24685;SDS011;12804;51.176;4.452;2023-03-01T16:03:12;7.88;;;5.88;;
24685;SDS011;12804;51.176;4.452;2023-03-01T16:05:38;8.48;;;6.13;;
24685;SDS011;12804;51.176;4.452;2023-03-01T16:08:04;8.52;;;5.85;;
24685;SDS011;12804;51.176;4.452;2023-03-01T16:10:31;7.13;;;6.00;;
24685;SDS011;12804;51.176;4.452;2023-03-01T16:12:58;10.65;;;5.88;;
24685;SDS011;12804;51.176;4.452;2023-03-01T16:15:25;7.53;;;5.72;;
24685;SDS011;12804;51.176;4.452;2023-03-01T16:17:53;7.88;;;5.82;;
24685;SDS011;12804;51.176;4.452;2023-03-01T16:20:22;10.15;;;5.85;;
24685;SDS011;12804;51.176;4.452;2023-03-01T16:22:48;8.50;;;5.63;;
24685;SDS011;12804;51.176;4.452;2023-03-01T16:25:15;8.18;;;6.40;;
24685;SDS011;12804;51.176;4.452;2023-03-01T16:27:43;11.25;;;6.00;;
24685;SDS011;12804;51.176;4.452;2023-03-01T16:30:14;6.13;;;5.40;;
24685;SDS011;12804;51.176;4.452;2023-03-01T16:32:42;9.52;;;5.90;;
24685;SDS011;12804;51.176;4.452;2023-03-01T16:35:09;7.78;;;6.47;;
24685;SDS011;12804;51.176;4.452;2023-03-01T16:37:37;7.50;;;6.30;;
24685;SDS011;12804;51.176;4.452;2023-03-01T16:40:04;9.10;;;5.43;;
24685;SDS011;12804;51.176;4.452;2023-03-01T16:42:36;7.50;;;5.85;;
24685;SDS011;12804;51.176;4.452;2023-03-01T16:45:06;6.18;;;5.30;;
24685;SDS011;12804;51.176;4.452;2023-03-01T16:47:33;7.30;;;6.03;;
24685;SDS011;12804;51.176;4.452;2023-03-01T16:49:59;12.48;;;6.15;;
24685;SDS011;12804;51.176;4.452;2023-03-01T16:52:25;10.50;;;6.10;;
24685;SDS011;12804;51.176;4.452;2023-03-01T16:54:51;7.25;;;5.70;;
24685;SDS011;12804;51.176;4.452;2023-03-01T16:57:17;6.90;;;5.75;;
24685;SDS011;12804;51.176;4.452;2023-03-01T16:59:43;8.85;;;6.10;;
24685;SDS011;12804;51.176;4.452;2023-03-01T17:02:12;11.00;;;6.53;;